createdAt,value
2022-11-12T00:00:02.878Z,102400.50
2022-11-12T00:03:11.711Z,102408.03
2022-11-12T00:05:58.188Z,102395.09
2022-11-12T00:08:45.069Z,102402.53
2022-11-12T00:11:31.467Z,102400.66
2022-11-12T00:14:18.170Z,102406.44
2022-11-12T00:17:04.642Z,102406.44
2022-11-12T00:19:51.598Z,102409.94
2022-11-12T00:22:37.857Z,102401.28
2022-11-12T00:25:25.029Z,102393.78
2022-11-12T00:28:11.998Z,102391.34
2022-11-12T00:30:58.827Z,102397.25
2022-11-12T00:33:45.441Z,102391.81
2022-11-12T00:36:32.278Z,102393.75
2022-11-12T00:39:19.320Z,102388.94
2022-11-12T00:42:06.249Z,102372.22
2022-11-12T00:44:52.869Z,102366.94
2022-11-12T00:47:40.650Z,102378.81
2022-11-12T00:50:27.059Z,102378.47
2022-11-12T00:53:14.252Z,102358.13
2022-11-12T00:56:04.945Z,102370.59
2022-11-12T00:58:51.978Z,102369.44
2022-11-12T01:01:40.159Z,102369.91
2022-11-12T01:04:27.018Z,102367.84
2022-11-12T01:07:16.161Z,102365.41
2022-11-12T01:10:03.811Z,102361.78
2022-11-12T01:12:50.420Z,102363.13
2022-11-12T01:15:42.446Z,102359.97
2022-11-12T01:18:29.116Z,102356.47
2022-11-12T01:21:16.377Z,102361.81
2022-11-12T01:24:03.058Z,102361.03
2022-11-12T01:26:50.007Z,102372.00
2022-11-12T01:29:36.399Z,102378.00
2022-11-12T01:32:23.154Z,102370.47
2022-11-12T01:35:09.828Z,102372.31
2022-11-12T01:37:56.679Z,102372.13
2022-11-12T01:40:43.189Z,102369.75
2022-11-12T01:43:29.998Z,102365.13
2022-11-12T01:46:25.340Z,102355.66
2022-11-12T01:49:18.280Z,102350.31
2022-11-12T01:52:28.167Z,102348.16
2022-11-12T01:55:22.543Z,102340.63
2022-11-12T01:58:12.829Z,102338.03
2022-11-12T02:01:03.755Z,102338.03
2022-11-12T02:03:50.672Z,102337.22
2022-11-12T02:06:40.407Z,102337.78
2022-11-12T02:09:26.957Z,102335.38
2022-11-12T02:12:34.018Z,102326.47
2022-11-12T02:15:20.450Z,102322.50
2022-11-12T02:18:07.697Z,102318.44
2022-11-12T02:20:57.927Z,102320.56
2022-11-12T02:23:44.807Z,102302.69
2022-11-12T02:26:37.416Z,102311.19
2022-11-12T02:29:25.357Z,102312.56
2022-11-12T02:32:15.096Z,102318.13
2022-11-12T02:35:01.826Z,102315.16
2022-11-12T02:37:47.998Z,102305.63
2022-11-12T02:40:35.078Z,102301.09
2022-11-12T02:43:21.730Z,102298.63
2022-11-12T02:46:09.596Z,102297.38
2022-11-12T02:48:56.079Z,102284.47
2022-11-12T02:51:43.167Z,102290.38
2022-11-12T02:54:29.583Z,102293.06
2022-11-12T02:57:16.276Z,102297.59
2022-11-12T03:00:05.177Z,102296.81
2022-11-12T03:03:01.600Z,102286.72
2022-11-12T03:05:59.691Z,102294.97
2022-11-12T03:08:46.702Z,102287.47
2022-11-12T03:11:33.086Z,102291.41
2022-11-12T03:14:20.019Z,102289.25
2022-11-12T03:17:06.328Z,102284.22
2022-11-12T03:19:52.982Z,102291.22
2022-11-12T03:22:40.990Z,102282.63
2022-11-12T03:25:29.298Z,102276.03
2022-11-12T03:28:17.008Z,102270.41
2022-11-12T03:31:03.757Z,102278.19
2022-11-12T03:33:50.237Z,102276.34
2022-11-12T03:36:37.038Z,102278.16
2022-11-12T03:39:23.408Z,102275.75
2022-11-12T03:42:10.180Z,102277.03
2022-11-12T03:44:56.731Z,102278.09
2022-11-12T03:47:46.978Z,102277.31
2022-11-12T03:50:33.587Z,102282.16
2022-11-12T03:53:20.153Z,102279.25
2022-11-12T03:56:07.068Z,102281.38
2022-11-12T03:58:54.627Z,102274.47
2022-11-12T04:01:41.442Z,102267.31
2022-11-12T04:04:48.151Z,102268.38
2022-11-12T04:07:53.416Z,102259.53
2022-11-12T04:10:40.368Z,102255.25
2022-11-12T04:13:29.870Z,102257.09
2022-11-12T04:16:40.517Z,102257.34
2022-11-12T04:19:45.834Z,102259.44
2022-11-12T04:22:32.884Z,102267.53
2022-11-12T04:25:38.425Z,102251.63
2022-11-12T04:28:26.562Z,102259.91
2022-11-12T04:31:13.454Z,102256.22
2022-11-12T04:34:20.879Z,102249.69
2022-11-12T04:37:07.686Z,102256.63
2022-11-12T04:39:54.329Z,102255.28
2022-11-12T04:42:59.745Z,102248.91
2022-11-12T04:45:49.358Z,102240.34
2022-11-12T04:48:35.829Z,102236.88
2022-11-12T04:51:40.904Z,102229.13
2022-11-12T04:54:27.674Z,102237.41
2022-11-12T04:57:14.255Z,102220.84
2022-11-12T05:00:00.693Z,102215.50
2022-11-12T05:02:50.584Z,102215.25
2022-11-12T05:05:37.155Z,102215.50
2022-11-12T05:08:25.270Z,102209.81
2022-11-12T05:11:13.079Z,102213.78
2022-11-12T05:14:00.226Z,102219.94
2022-11-12T05:16:46.905Z,102218.97
2022-11-12T05:19:35.239Z,102205.50
2022-11-12T05:22:42.875Z,102209.38
2022-11-12T05:25:28.465Z,102211.69
2022-11-12T05:28:15.473Z,102214.50
2022-11-12T05:31:02.384Z,102209.63
2022-11-12T05:33:48.695Z,102204.34
2022-11-12T05:36:35.825Z,102197.47
2022-11-12T05:39:22.435Z,102209.56
2022-11-12T05:42:14.298Z,102214.31
2022-11-12T05:45:00.844Z,102214.91
2022-11-12T05:47:48.346Z,102205.84
2022-11-12T05:50:45.277Z,102207.03
2022-11-12T05:53:43.388Z,102201.88
2022-11-12T05:56:29.584Z,102194.41
2022-11-12T05:59:16.296Z,102189.81
2022-11-12T06:02:02.906Z,102191.34
2022-11-12T06:04:49.720Z,102195.09
2022-11-12T06:07:36.223Z,102185.78
2022-11-12T06:10:23.164Z,102180.47
2022-11-12T06:13:09.555Z,102194.34
2022-11-12T06:15:56.705Z,102191.31
2022-11-12T06:18:43.516Z,102195.06
2022-11-12T06:21:31.135Z,102190.75
2022-11-12T06:24:18.174Z,102194.19
2022-11-12T06:27:06.087Z,102198.09
2022-11-12T06:29:52.558Z,102190.53
2022-11-12T06:32:39.323Z,102184.50
2022-11-12T06:35:25.774Z,102197.41
2022-11-12T06:38:12.602Z,102188.63
2022-11-12T06:40:59.032Z,102180.78
2022-11-12T06:43:45.694Z,102190.06
2022-11-12T06:46:32.203Z,102193.56
2022-11-12T06:49:18.833Z,102185.72
2022-11-12T06:52:05.554Z,102188.66
2022-11-12T06:54:53.306Z,102180.78
2022-11-12T06:57:39.714Z,102184.53
2022-11-12T07:00:26.605Z,102197.63
2022-11-12T07:03:15.435Z,102200.03
2022-11-12T07:06:12.564Z,102198.13
2022-11-12T07:08:59.520Z,102205.56
2022-11-12T07:11:46.342Z,102185.56
2022-11-12T07:14:32.656Z,102174.38
2022-11-12T07:17:19.728Z,102179.22
2022-11-12T07:20:06.687Z,102188.78
2022-11-12T07:22:54.106Z,102193.22
2022-11-12T07:25:40.757Z,102199.78
2022-11-12T07:28:27.936Z,102188.63
2022-11-12T07:31:16.205Z,102187.59
2022-11-12T07:34:04.104Z,102187.19
2022-11-12T07:36:52.354Z,102180.69
2022-11-12T07:39:39.024Z,102179.00
2022-11-12T07:42:26.173Z,102182.88
2022-11-12T07:45:12.976Z,102188.75
2022-11-12T07:47:59.816Z,102186.41
2022-11-12T07:50:46.744Z,102182.56
2022-11-12T07:53:34.423Z,102187.78
2022-11-12T07:56:24.245Z,102172.28
2022-11-12T07:59:10.605Z,102179.97
2022-11-12T08:01:57.500Z,102185.97
2022-11-12T08:04:45.017Z,102184.31
2022-11-12T08:07:32.069Z,102191.31
2022-11-12T08:10:18.986Z,102186.50
2022-11-12T08:13:06.887Z,102185.84
2022-11-12T08:15:53.555Z,102188.09
2022-11-12T08:18:40.122Z,102189.63
2022-11-12T08:21:27.376Z,102189.38
2022-11-12T08:24:14.166Z,102179.63
2022-11-12T08:27:00.725Z,102176.63
2022-11-12T08:29:47.625Z,102164.00
2022-11-12T08:32:34.367Z,102172.88
2022-11-12T08:35:21.045Z,102175.72
2022-11-12T08:38:11.717Z,102171.34
2022-11-12T08:41:08.436Z,102179.78
2022-11-12T08:43:54.945Z,102174.31
2022-11-12T08:46:41.976Z,102181.13
2022-11-12T08:49:29.400Z,102174.19
2022-11-12T08:52:16.090Z,102172.97
2022-11-12T08:55:02.756Z,102168.97
2022-11-12T08:57:49.447Z,102164.28
2022-11-12T09:00:38.758Z,102163.84
2022-11-12T09:03:26.537Z,102177.56
2022-11-12T09:06:12.768Z,102169.75
2022-11-12T09:09:00.017Z,102171.84
2022-11-12T09:11:46.819Z,102161.28
2022-11-12T09:14:33.881Z,102164.31
2022-11-12T09:17:20.256Z,102172.38
2022-11-12T09:20:07.470Z,102172.81
2022-11-12T09:22:55.008Z,102169.63
2022-11-12T09:25:44.112Z,102170.22
2022-11-12T09:28:31.668Z,102171.00
2022-11-12T09:31:18.428Z,102177.09
2022-11-12T09:34:05.317Z,102171.00
2022-11-12T09:36:52.207Z,102168.22
2022-11-12T09:39:38.802Z,102163.13
2022-11-12T09:42:25.832Z,102157.66
2022-11-12T09:45:26.823Z,102158.81
2022-11-12T09:48:20.902Z,102155.78
2022-11-12T09:51:12.951Z,102166.50
2022-11-12T09:54:28.633Z,102170.25
2022-11-12T09:57:15.273Z,102169.84
2022-11-12T10:00:03.752Z,102153.53
2022-11-12T10:02:58.191Z,102149.06
2022-11-12T10:06:02.533Z,102143.25
2022-11-12T10:08:57.351Z,102138.44
2022-11-12T10:12:27.697Z,102133.56
2022-11-12T10:16:11.322Z,102123.28
2022-11-12T10:19:21.013Z,102118.91
2022-11-12T10:22:49.732Z,102101.66
2022-11-12T10:25:38.602Z,102084.88
2022-11-12T10:28:32.072Z,102083.97
2022-11-12T10:31:23.947Z,102094.84
2022-11-12T10:34:23.680Z,102099.78
2022-11-12T10:37:22.824Z,102095.41
2022-11-12T10:40:21.601Z,102096.09
2022-11-12T10:43:17.643Z,102097.84
2022-11-12T10:46:19.462Z,102101.97
2022-11-12T10:49:24.279Z,102082.91
2022-11-12T10:52:25.211Z,102083.38
2022-11-12T10:55:20.644Z,102080.41
2022-11-12T10:58:10.013Z,102077.81
2022-11-12T11:01:07.674Z,102069.56
2022-11-12T11:03:58.689Z,102080.38
2022-11-12T11:06:45.884Z,102071.66
2022-11-12T11:09:34.654Z,102069.28
2022-11-12T11:12:32.773Z,102064.34
2022-11-12T11:15:24.194Z,102054.03
2022-11-12T11:18:14.868Z,102054.97
2022-11-12T11:21:19.995Z,102046.25
2022-11-12T11:24:15.762Z,102044.59
2022-11-12T11:27:11.282Z,102035.59
2022-11-12T11:30:19.027Z,102027.53
2022-11-12T11:33:20.876Z,102027.06
2022-11-12T11:36:22.670Z,102016.75
2022-11-12T11:39:45.391Z,102020.72
2022-11-12T11:43:04.381Z,102018.81
2022-11-12T11:46:07.323Z,102022.09
2022-11-12T11:49:03.161Z,102013.75
2022-11-12T11:52:15.822Z,102011.16
2022-11-12T11:55:15.875Z,102002.31
2022-11-12T11:58:17.622Z,101998.97
2022-11-12T12:01:08.303Z,101997.06
2022-11-12T12:04:23.447Z,101981.84
2022-11-12T12:07:12.897Z,101979.31
2022-11-12T12:10:53.687Z,101990.44
2022-11-12T12:13:58.242Z,101989.63
2022-11-12T12:16:54.089Z,101992.47
2022-11-12T12:20:06.563Z,101979.81
2022-11-12T12:23:21.894Z,101984.56
2022-11-12T12:26:19.301Z,101975.69
2022-11-12T12:29:27.399Z,101979.44
2022-11-12T12:32:19.319Z,101981.19
2022-11-12T12:35:23.138Z,101981.19
2022-11-12T12:38:24.095Z,101980.84
2022-11-12T12:41:20.298Z,101975.91
2022-11-12T12:44:10.759Z,101974.63
2022-11-12T12:47:01.366Z,101968.97
2022-11-12T12:49:51.825Z,101975.28
2022-11-12T12:53:03.047Z,101975.94
2022-11-12T12:55:52.647Z,101975.00
2022-11-12T12:58:48.888Z,101972.63
2022-11-12T13:01:37.239Z,101971.03
2022-11-12T13:04:53.139Z,101969.72
2022-11-12T13:07:51.618Z,101972.56
2022-11-12T13:10:51.009Z,101975.31
2022-11-12T13:13:39.459Z,101983.91
2022-11-12T13:16:51.378Z,101979.78
2022-11-12T13:19:54.963Z,101977.22
2022-11-12T13:22:41.740Z,101971.81
2022-11-12T13:25:32.169Z,101967.50
2022-11-12T13:28:19.509Z,101959.41
2022-11-12T13:31:26.739Z,101962.28
2022-11-12T13:34:23.418Z,101964.53
2022-11-12T13:37:21.649Z,101975.94
2022-11-12T13:40:16.456Z,101969.34
2022-11-12T13:43:21.338Z,101957.28
2022-11-12T13:46:10.643Z,101960.75
2022-11-12T13:49:19.540Z,101954.72
2022-11-12T13:52:06.462Z,101962.84
2022-11-12T13:55:22.758Z,101958.25
2022-11-12T13:58:30.543Z,101945.56
2022-11-12T14:01:23.076Z,101942.69
2022-11-12T14:04:16.465Z,101941.56
2022-11-12T14:07:13.620Z,101943.81
2022-11-12T14:10:30.905Z,101946.03
2022-11-12T14:14:05.895Z,101936.19
2022-11-12T14:17:26.455Z,101944.28
2022-11-12T14:20:31.388Z,101937.78
2022-11-12T14:23:24.922Z,101934.13
2022-11-12T14:26:14.275Z,101937.13
2022-11-12T14:29:01.055Z,101935.88
2022-11-12T14:31:47.926Z,101933.81
2022-11-12T14:34:35.297Z,101928.44
2022-11-12T14:37:39.838Z,101931.28
2022-11-12T14:40:35.573Z,101930.50
2022-11-12T14:43:27.320Z,101935.88
2022-11-12T14:46:23.655Z,101930.16
2022-11-12T14:49:28.477Z,101923.03
2022-11-12T14:52:33.216Z,101917.59
2022-11-12T14:55:25.507Z,101925.09
2022-11-12T14:58:15.705Z,101920.81
2022-11-12T15:02:13.919Z,101922.19
2022-11-12T15:04:42.949Z,101924.31
2022-11-12T15:07:35.701Z,101914.22
2022-11-12T15:10:42.588Z,101924.38
2022-11-12T15:13:40.567Z,101928.75
2022-11-12T15:16:35.538Z,101932.41
2022-11-12T15:19:29.081Z,101931.47
2022-11-12T15:22:23.073Z,101925.09
2022-11-12T15:25:13.397Z,101926.84
2022-11-12T15:28:23.788Z,101921.41
2022-11-12T15:31:20.832Z,101930.44
2022-11-12T15:34:39.507Z,101927.53
2022-11-12T15:37:31.711Z,101919.00
2022-11-12T15:40:20.818Z,101927.75
2022-11-12T15:43:21.868Z,101917.28
2022-11-12T15:46:15.460Z,101918.84
2022-11-12T15:49:02.301Z,101926.69
2022-11-12T15:51:48.586Z,101935.19
2022-11-12T15:54:40.825Z,101927.03
2022-11-12T15:57:30.526Z,101924.41
2022-11-12T16:00:22.851Z,101921.69
2022-11-12T16:03:17.129Z,101923.31
2022-11-12T16:06:08.580Z,101914.50
2022-11-12T16:08:56.090Z,101919.53
2022-11-12T16:11:44.210Z,101921.00
2022-11-12T16:14:31.458Z,101918.78
2022-11-12T16:17:18.934Z,101912.03
2022-11-12T16:20:28.528Z,101900.44
2022-11-12T16:23:16.116Z,101891.06
2022-11-12T16:26:07.997Z,101889.03
2022-11-12T16:28:55.893Z,101896.84
2022-11-12T16:31:44.733Z,101893.59
2022-11-12T16:34:32.213Z,101885.13
2022-11-12T16:37:19.051Z,101887.13
2022-11-12T16:40:12.882Z,101882.72
2022-11-12T16:42:59.355Z,101880.59
2022-11-12T16:45:46.485Z,101885.53
2022-11-12T16:48:33.020Z,101885.66
2022-11-12T16:51:21.936Z,101897.03
2022-11-12T16:54:09.262Z,101882.97
2022-11-12T16:56:57.096Z,101891.53
2022-11-12T16:59:43.441Z,101886.13
2022-11-12T17:02:30.372Z,101886.88
2022-11-12T17:05:20.752Z,101889.22
2022-11-12T17:08:11.163Z,101886.50
2022-11-12T17:10:58.028Z,101871.94
2022-11-12T17:13:45.061Z,101872.69
2022-11-12T17:16:50.091Z,101867.53
2022-11-12T17:19:38.477Z,101859.94
2022-11-12T17:22:25.701Z,101865.59
2022-11-12T17:25:13.661Z,101860.34
2022-11-12T17:28:00.692Z,101867.44
2022-11-12T17:30:47.597Z,101872.41
2022-11-12T17:33:38.966Z,101867.84
2022-11-12T17:36:27.993Z,101862.00
2022-11-12T17:39:14.982Z,101862.47
2022-11-12T17:42:01.833Z,101868.66
2022-11-12T17:44:48.283Z,101858.63
2022-11-12T17:47:40.136Z,101859.41
2022-11-12T17:50:27.232Z,101858.50
2022-11-12T17:53:14.788Z,101847.19
2022-11-12T17:56:02.372Z,101856.28
2022-11-12T17:58:51.361Z,101852.00
2022-11-12T18:01:38.204Z,101849.03
2022-11-12T18:04:30.598Z,101832.59
2022-11-12T18:07:17.769Z,101830.81
2022-11-12T18:10:05.292Z,101826.13
2022-11-12T18:12:53.031Z,101826.25
2022-11-12T18:15:39.756Z,101829.94
2022-11-12T18:18:26.261Z,101825.06
2022-11-12T18:21:15.212Z,101816.63
2022-11-12T18:24:01.832Z,101807.53
2022-11-12T18:26:49.801Z,101803.28
2022-11-12T18:29:36.262Z,101803.44
2022-11-12T18:32:23.383Z,101793.88
2022-11-12T18:35:10.861Z,101796.13
2022-11-12T18:37:57.896Z,101790.56
2022-11-12T18:40:44.506Z,101791.41
2022-11-12T18:43:31.531Z,101791.56
2022-11-12T18:46:17.931Z,101793.41
2022-11-12T18:49:04.753Z,101788.72
2022-11-12T18:51:51.321Z,101797.25
2022-11-12T18:54:38.268Z,101790.19
2022-11-12T18:57:26.394Z,101807.38
2022-11-12T19:00:14.395Z,101797.06
2022-11-12T19:03:01.915Z,101798.53
2022-11-12T19:05:48.706Z,101804.69
2022-11-12T19:08:35.931Z,101805.94
2022-11-12T19:11:23.067Z,101807.28
2022-11-12T19:14:10.193Z,101800.09
2022-11-12T19:16:57.725Z,101810.16
2022-11-12T19:19:44.205Z,101812.47
2022-11-12T19:22:32.012Z,101811.91
2022-11-12T19:25:18.601Z,101810.84
2022-11-12T19:28:05.527Z,101813.72
2022-11-12T19:30:52.529Z,101811.78
2022-11-12T19:33:40.782Z,101821.44
2022-11-12T19:36:27.732Z,101832.09
2022-11-12T19:39:15.612Z,101835.53
2022-11-12T19:42:02.381Z,101838.25
2022-11-12T19:44:49.942Z,101827.31
2022-11-12T19:47:36.623Z,101837.63
2022-11-12T19:50:25.062Z,101837.31
2022-11-12T19:53:12.037Z,101846.16
2022-11-12T19:56:03.698Z,101848.56
2022-11-12T19:58:50.696Z,101846.69
2022-11-12T20:01:37.681Z,101846.91
2022-11-12T20:04:24.446Z,101850.75
2022-11-12T20:07:11.614Z,101846.44
2022-11-12T20:10:01.127Z,101855.19
2022-11-12T20:12:49.353Z,101853.19
2022-11-12T20:15:38.671Z,101857.94
2022-11-12T20:18:26.773Z,101850.97
2022-11-12T20:21:14.632Z,101849.50
2022-11-12T20:24:02.206Z,101870.75
2022-11-12T20:26:48.791Z,101866.25
2022-11-12T20:29:35.581Z,101867.31
2022-11-12T20:32:23.007Z,101856.91
2022-11-12T20:35:19.354Z,101856.34
2022-11-12T20:38:08.655Z,101854.63
2022-11-12T20:41:00.351Z,101854.56
2022-11-12T20:43:47.220Z,101850.41
2022-11-12T20:46:34.131Z,101838.09
2022-11-12T20:49:20.551Z,101839.38
2022-11-12T20:52:08.550Z,101841.25
2022-11-12T20:54:55.007Z,101837.41
2022-11-12T20:57:43.027Z,101833.03
2022-11-12T21:00:29.771Z,101836.03
2022-11-12T21:03:17.863Z,101836.66
2022-11-12T21:06:05.863Z,101832.28
2022-11-12T21:08:53.150Z,101817.03
2022-11-12T21:11:39.527Z,101836.09
2022-11-12T21:14:27.317Z,101823.28
2022-11-12T21:17:13.653Z,101823.13
2022-11-12T21:20:01.990Z,101816.22
2022-11-12T21:22:48.527Z,101817.53
2022-11-12T21:25:36.726Z,101817.59
2022-11-12T21:28:23.158Z,101808.13
2022-11-12T21:31:21.503Z,101809.00
2022-11-12T21:34:10.887Z,101818.44
2022-11-12T21:36:58.652Z,101807.88
2022-11-12T21:39:49.467Z,101800.56
2022-11-12T21:42:36.356Z,101807.59
2022-11-12T21:45:22.643Z,101801.50
2022-11-12T21:48:09.543Z,101795.44
2022-11-12T21:50:56.204Z,101789.06
2022-11-12T21:53:45.542Z,101798.59
2022-11-12T21:56:33.653Z,101796.41
2022-11-12T21:59:20.393Z,101804.44
2022-11-12T22:02:09.858Z,101801.97
2022-11-12T22:04:56.533Z,101813.72
2022-11-12T22:07:43.618Z,101807.75
2022-11-12T22:10:31.669Z,101806.13
2022-11-12T22:13:26.829Z,101808.50
2022-11-12T22:16:25.498Z,101804.16
2022-11-12T22:19:12.946Z,101803.59
2022-11-12T22:21:59.698Z,101808.03
2022-11-12T22:24:45.959Z,101799.97
2022-11-12T22:27:34.346Z,101798.06
2022-11-12T22:30:21.337Z,101798.28
2022-11-12T22:33:08.127Z,101802.38
2022-11-12T22:35:54.446Z,101796.41
2022-11-12T22:38:44.065Z,101795.41
2022-11-12T22:41:32.796Z,101792.63
2022-11-12T22:44:19.393Z,101791.75
2022-11-12T22:47:05.686Z,101791.91
2022-11-12T22:49:53.847Z,101786.56
2022-11-12T22:52:43.426Z,101773.28
2022-11-12T22:55:32.901Z,101772.91
2022-11-12T22:58:19.737Z,101782.97
2022-11-12T23:01:11.862Z,101774.44
2022-11-12T23:04:00.741Z,101774.09
2022-11-12T23:06:47.648Z,101765.16
2022-11-12T23:09:33.922Z,101760.19
2022-11-12T23:12:20.671Z,101766.72
2022-11-12T23:15:07.603Z,101761.94
2022-11-12T23:17:55.712Z,101766.38
2022-11-12T23:20:42.195Z,101759.53
2022-11-12T23:23:30.111Z,101762.81
2022-11-12T23:26:25.342Z,101759.47
2022-11-12T23:29:13.534Z,101759.19
2022-11-12T23:31:59.981Z,101757.41
2022-11-12T23:34:46.844Z,101753.53
2022-11-12T23:37:34.029Z,101748.16
2022-11-12T23:40:21.000Z,101751.53
2022-11-12T23:43:07.762Z,101736.50
2022-11-12T23:45:54.930Z,101739.78
2022-11-12T23:48:41.711Z,101741.19
2022-11-12T23:51:29.588Z,101739.78
2022-11-12T23:54:16.081Z,101743.81
2022-11-12T23:57:04.371Z,101740.59
2022-11-12T23:59:50.921Z,101726.06
